»·PEaware :: N716CS L52-L88

N716CS :: L52-L88

FLIGHT INFORMATION

Flight Status: Arrived
Operator: Privately registered:
United States
More flights under this callsign
Pilot: Chris C. (22725)
Aircraft: CESSNA 172 SKYHAWK
(C172)
More flights by this aircraft type
Origin: L52 Oceano Co
United States
Destination: L88 New Cuyama
United States
More flights between these airports :: More routes between these airports
Route: L52 FLW L88
File this flight plan on PilotEdge
Remarks:
Altitude:
(Current/Filed)
7,500ft
Speed:
(Current/Filed)
110kts
Departed: 28-Dec-18 08:46 AM
Arrived: 28-Dec-18 09:19 AM
Distance/Time
Traveled:
48nm/0:33
Distance/Time
To Go:
Arrived

Flight Plot

Page will automatically refresh every two minutes.


Map Options




Map Legend


Flown Route
Filed Route
Departure Airport
Arrival Airport
Navaid (VOR, NDB)
Fix

Horizontal Profiles

Position Reports

Time Latitude Longitude Heading Altitude Ground
Speed
28-Dec-18 08:37 35.103553 -120.624283 214 17ft 0kts
28-Dec-18 08:38 35.103553 -120.624283 214 17ft 0kts
28-Dec-18 08:39 35.103553 -120.624283 214 17ft 0kts
28-Dec-18 08:40 35.103553 -120.624283 214 17ft 0kts
28-Dec-18 08:41 35.103553 -120.624283 214 17ft 0kts
28-Dec-18 08:42 35.103317 -120.624461 179 17ft 5kts
28-Dec-18 08:43 35.101579 -120.623308 125 17ft 15kts
28-Dec-18 08:44 35.099901 -120.620146 123 16ft 7kts
28-Dec-18 08:45 35.099560 -120.619321 38 16ft 0kts
28-Dec-18 08:46 35.102584 -120.624148 303 88ft 68kts
28-Dec-18 08:46 35.112502 -120.638321 306 836ft 69kts
28-Dec-18 08:48 35.123492 -120.621315 90 1760ft 88kts
28-Dec-18 08:48 35.121812 -120.596095 103 2363ft 91kts
28-Dec-18 08:50 35.118504 -120.559969 94 3145ft 94kts
28-Dec-18 08:50 35.118260 -120.532944 87 3670ft 95kts
28-Dec-18 08:51 35.119883 -120.500459 85 4235ft 98kts
28-Dec-18 08:53 35.122385 -120.457760 83 4604ft 110kts
28-Dec-18 08:53 35.125699 -120.427089 83 4918ft 108kts
28-Dec-18 08:54 35.124144 -120.390909 94 5333ft 106kts
28-Dec-18 08:55 35.121757 -120.355646 97 5829ft 97kts
28-Dec-18 08:57 35.117558 -120.317283 95 6291ft 104kts
28-Dec-18 08:57 35.116800 -120.288766 92 6687ft 97kts
28-Dec-18 08:58 35.115291 -120.254285 92 7007ft 103kts
28-Dec-18 08:59 35.118987 -120.218949 79 7265ft 108kts
28-Dec-18 09:00 35.122878 -120.183271 87 7510ft 107kts
28-Dec-18 09:01 35.119155 -120.146672 102 7633ft 108kts
28-Dec-18 09:02 35.109432 -120.111997 111 7645ft 113kts
28-Dec-18 09:03 35.098014 -120.075870 104 7537ft 117kts
28-Dec-18 09:04 35.089184 -120.038652 118 7399ft 114kts
28-Dec-18 09:05 35.072321 -120.007087 123 7400ft 103kts
28-Dec-18 09:06 35.057230 -119.975526 115 7292ft 108kts
28-Dec-18 09:07 35.042048 -119.944081 119 7170ft 109kts
28-Dec-18 09:08 35.026010 -119.912111 120 6819ft 110kts
28-Dec-18 09:09 35.010630 -119.879301 118 6567ft 112kts
28-Dec-18 09:10 34.995680 -119.844041 117 6204ft 128kts
28-Dec-18 09:11 34.980047 -119.806343 114 5127ft 114kts
28-Dec-18 09:12 34.965646 -119.772818 118 3847ft 109kts
28-Dec-18 09:13 34.949648 -119.739382 121 3515ft 126kts
28-Dec-18 09:14 34.931229 -119.702616 121 3118ft 111kts
28-Dec-18 09:15 34.919366 -119.672787 99 3365ft 94kts
28-Dec-18 09:16 34.933055 -119.657741 285 2908ft 98kts
28-Dec-18 09:17 34.939651 -119.684917 299 2180ft 61kts
28-Dec-18 09:18 34.943251 -119.690988 16 2149ft 12kts
28-Dec-18 09:19 34.943737 -119.691023 110 2148ft 0kts
28-Dec-18 09:20 34.943737 -119.691023 110 2148ft 0kts
28-Dec-18 09:21 34.943737 -119.691023 110 2148ft 0kts
28-Dec-18 09:22 34.943737 -119.691023 110 2148ft 0kts
28-Dec-18 09:23 34.943721 -119.690977 118 2148ft 2kts
28-Dec-18 09:24 34.942086 -119.690790 114 2153ft 11kts
28-Dec-18 09:25 34.938004 -119.680884 118 2200ft 25kts
28-Dec-18 09:26 34.940423 -119.686730 296 2215ft 81kts
28-Dec-18 09:27 34.941456 -119.709626 207 2958ft 79kts
28-Dec-18 09:28 34.926669 -119.692404 115 3392ft 99kts
28-Dec-18 09:29 34.923276 -119.663726 7 3157ft 86kts
28-Dec-18 09:30 34.938849 -119.682856 294 2262ft 87kts
28-Dec-18 09:31 34.942243 -119.707477 200 2906ft 84kts
28-Dec-18 09:32 34.920182 -119.707812 113 3516ft 93kts
28-Dec-18 09:33 34.908745 -119.676992 112 3582ft 101kts

Navigation Log

Ident Type
Flight plan parsing failed, navigation log unavailable